createdAt,value
2019-03-25T00:00:41.539Z,49.98
2019-03-25T00:03:10.201Z,48.83
2019-03-25T00:05:37.580Z,51.60
2019-03-25T00:08:04.697Z,44.63
2019-03-25T00:10:31.752Z,48.23
2019-03-25T00:12:58.794Z,46.33
2019-03-25T00:15:25.842Z,45.15
2019-03-25T00:17:53.226Z,48.73
2019-03-25T00:20:20.589Z,46.85
2019-03-25T00:22:47.636Z,46.28
2019-03-25T00:25:15.008Z,48.73
2019-03-25T00:27:42.342Z,47.43
2019-03-25T00:30:10.367Z,49.75
2019-03-25T00:32:37.656Z,48.00
2019-03-25T00:35:04.968Z,50.15
2019-03-25T00:37:32.248Z,49.42
2019-03-25T00:39:59.543Z,45.55
2019-03-25T00:42:26.905Z,49.65
2019-03-25T00:44:54.213Z,45.52
2019-03-25T00:47:21.612Z,50.92
2019-03-25T00:49:48.968Z,46.08
2019-03-25T00:52:16.015Z,52.98
2019-03-25T00:54:50.046Z,46.10
2019-03-25T00:57:12.449Z,43.17
2019-03-25T00:59:39.502Z,40.88
2019-03-25T01:02:06.852Z,43.78
2019-03-25T01:04:34.208Z,44.23
2019-03-25T01:07:01.268Z,36.65
2019-03-25T01:09:28.302Z,36.70
2019-03-25T01:11:55.656Z,36.88
2019-03-25T01:14:22.698Z,39.15
2019-03-25T01:16:49.839Z,38.02
2019-03-25T01:19:17.212Z,38.60
2019-03-25T01:21:44.584Z,38.45
2019-03-25T01:24:11.649Z,35.38
2019-03-25T01:26:38.690Z,34.35
2019-03-25T01:29:05.743Z,37.15
2019-03-25T01:31:32.799Z,35.60
2019-03-25T01:34:01.234Z,34.83
2019-03-25T01:36:28.294Z,34.08
2019-03-25T01:38:55.644Z,35.60
2019-03-25T01:41:22.709Z,37.67
2019-03-25T01:43:49.994Z,44.50
2019-03-25T01:46:17.423Z,32.80
2019-03-25T01:48:44.755Z,35.75
2019-03-25T01:51:12.056Z,40.43
2019-03-25T01:53:39.096Z,38.38
2019-03-25T01:56:06.510Z,37.50
2019-03-25T01:58:33.867Z,37.63
2019-03-25T02:01:01.240Z,39.27
2019-03-25T02:03:28.527Z,37.83
2019-03-25T02:05:55.888Z,37.50
2019-03-25T02:08:23.182Z,36.45
2019-03-25T02:10:50.246Z,33.58
2019-03-25T02:13:17.609Z,33.63
2019-03-25T02:15:44.946Z,27.73
2019-03-25T02:18:12.321Z,30.52
2019-03-25T02:20:39.380Z,32.58
2019-03-25T02:23:06.993Z,30.70
2019-03-25T02:25:34.222Z,29.92
2019-03-25T02:28:01.530Z,34.03
2019-03-25T02:30:28.812Z,38.30
2019-03-25T02:32:55.862Z,34.98
2019-03-25T02:35:23.173Z,32.75
2019-03-25T02:37:50.233Z,36.68
2019-03-25T02:40:17.574Z,32.30
2019-03-25T02:42:44.933Z,34.60
2019-03-25T02:45:12.280Z,32.17
2019-03-25T02:47:39.342Z,33.25
2019-03-25T02:50:06.633Z,29.45
2019-03-25T02:52:33.676Z,27.98
2019-03-25T02:55:00.711Z,31.07
2019-03-25T02:57:27.763Z,32.48
2019-03-25T02:59:54.807Z,29.45
2019-03-25T03:02:22.129Z,31.35
2019-03-25T03:04:49.166Z,33.90
2019-03-25T03:07:16.302Z,31.30
2019-03-25T03:09:43.602Z,27.65
2019-03-25T03:12:10.654Z,30.17
2019-03-25T03:14:38.003Z,28.23
2019-03-25T03:17:05.324Z,25.05
2019-03-25T03:19:32.606Z,25.17
2019-03-25T03:21:59.949Z,25.50
2019-03-25T03:24:28.347Z,26.15
2019-03-25T03:26:56.474Z,24.55
2019-03-25T03:29:23.504Z,22.42
2019-03-25T03:31:50.816Z,21.23
2019-03-25T03:34:17.863Z,19.82
2019-03-25T03:36:45.161Z,17.00
2019-03-25T03:39:12.425Z,16.65
2019-03-25T03:41:39.731Z,18.23
2019-03-25T03:44:07.005Z,17.60
2019-03-25T03:46:34.300Z,16.93
2019-03-25T03:49:01.592Z,24.10
2019-03-25T03:51:28.623Z,22.62
2019-03-25T03:53:55.923Z,14.70
2019-03-25T03:56:22.964Z,15.45
2019-03-25T03:58:50.528Z,17.57
2019-03-25T04:01:17.769Z,16.05
2019-03-25T04:03:44.818Z,10.72
2019-03-25T04:06:12.826Z,14.87
2019-03-25T04:08:39.881Z,18.75
2019-03-25T04:11:06.921Z,13.50
2019-03-25T04:13:33.978Z,15.45
2019-03-25T04:16:01.568Z,14.15
2019-03-25T04:18:28.937Z,13.43
2019-03-25T04:20:57.112Z,15.10
2019-03-25T04:23:24.162Z,11.03
2019-03-25T04:25:51.484Z,13.95
2019-03-25T04:28:18.782Z,13.38
2019-03-25T04:30:46.113Z,14.10
2019-03-25T04:33:13.411Z,14.63
2019-03-25T04:35:40.826Z,29.95
2019-03-25T04:38:07.881Z,20.08
2019-03-25T04:40:34.914Z,11.95
2019-03-25T04:43:02.045Z,15.72
2019-03-25T04:45:29.078Z,17.82
2019-03-25T04:47:56.451Z,13.22
2019-03-25T04:50:23.822Z,16.77
2019-03-25T04:52:51.177Z,15.00
2019-03-25T04:55:18.214Z,13.75
2019-03-25T04:57:45.268Z,14.83
2019-03-25T05:00:12.612Z,14.00
2019-03-25T05:02:39.664Z,17.23
2019-03-25T05:05:07.032Z,16.45
2019-03-25T05:07:34.090Z,14.30
2019-03-25T05:10:01.421Z,16.05
2019-03-25T05:12:28.997Z,19.85
2019-03-25T05:14:56.034Z,11.90
2019-03-25T05:17:23.091Z,21.90
2019-03-25T05:19:50.126Z,22.30
2019-03-25T05:27:32.056Z,16.25
2019-03-25T05:29:59.405Z,15.95
2019-03-25T05:32:28.009Z,16.65
2019-03-25T05:34:55.066Z,18.37
2019-03-25T05:37:22.357Z,18.48
2019-03-25T05:39:49.770Z,15.10
2019-03-25T05:42:16.830Z,15.08
2019-03-25T05:44:43.867Z,16.77
2019-03-25T05:47:10.897Z,14.38
2019-03-25T05:49:37.946Z,22.48
2019-03-25T05:52:04.987Z,13.03
2019-03-25T05:54:32.043Z,16.52
2019-03-25T05:57:02.812Z,14.35
2019-03-25T05:59:28.488Z,14.45
2019-03-25T06:01:55.527Z,16.27
2019-03-25T06:04:22.911Z,18.12
2019-03-25T06:06:52.060Z,14.95
2019-03-25T06:09:18.706Z,16.20
2019-03-25T06:11:46.083Z,19.48
2019-03-25T06:14:13.457Z,11.50
2019-03-25T06:16:40.793Z,15.00
2019-03-25T06:19:07.929Z,19.85
2019-03-25T06:21:35.214Z,15.25
2019-03-25T06:24:02.552Z,16.05
2019-03-25T06:26:30.559Z,20.60
2019-03-25T06:28:57.859Z,15.05
2019-03-25T06:31:25.151Z,16.37
2019-03-25T06:33:52.498Z,17.55
2019-03-25T06:36:19.838Z,18.57
2019-03-25T06:38:47.199Z,22.90
2019-03-25T06:41:14.247Z,15.48
2019-03-25T06:43:41.297Z,18.25
2019-03-25T06:46:08.339Z,19.23
2019-03-25T06:48:35.709Z,16.07
2019-03-25T06:51:03.052Z,15.10
2019-03-25T06:53:30.088Z,12.73
2019-03-25T06:55:57.147Z,16.25
2019-03-25T06:58:24.194Z,16.40
2019-03-25T07:00:51.258Z,17.40
2019-03-25T07:03:18.820Z,16.62
2019-03-25T07:05:45.882Z,14.40
2019-03-25T07:08:12.919Z,12.40
2019-03-25T07:10:41.047Z,18.15
2019-03-25T07:13:08.086Z,18.92
2019-03-25T07:15:35.473Z,13.80
2019-03-25T07:18:03.033Z,17.05
2019-03-25T07:20:30.086Z,15.65
2019-03-25T07:22:57.130Z,13.32
2019-03-25T07:25:24.484Z,12.63
2019-03-25T07:27:51.838Z,15.60
2019-03-25T07:30:18.891Z,16.82
2019-03-25T07:32:45.936Z,13.28
2019-03-25T07:35:12.990Z,14.05
2019-03-25T07:37:40.342Z,14.93
2019-03-25T07:40:07.395Z,14.28
2019-03-25T07:42:35.660Z,18.52
2019-03-25T07:45:02.791Z,17.48
2019-03-25T07:47:30.165Z,14.23
2019-03-25T07:49:57.219Z,17.25
2019-03-25T07:52:24.569Z,15.48
2019-03-25T07:54:51.944Z,15.98
2019-03-25T07:57:18.982Z,16.45
2019-03-25T07:59:46.049Z,12.40
2019-03-25T08:02:15.227Z,12.15
2019-03-25T08:04:42.503Z,17.60
2019-03-25T08:07:09.552Z,17.48
2019-03-25T08:09:36.911Z,13.48
2019-03-25T08:12:03.977Z,19.52
2019-03-25T08:14:31.285Z,13.03
2019-03-25T08:16:58.634Z,14.07
2019-03-25T08:19:25.746Z,14.33
2019-03-25T08:21:53.061Z,14.25
2019-03-25T08:24:20.389Z,11.12
2019-03-25T08:26:47.444Z,13.90
2019-03-25T08:29:14.813Z,16.35
2019-03-25T08:31:42.107Z,15.32
2019-03-25T08:34:09.141Z,13.72
2019-03-25T08:36:36.189Z,12.65
2019-03-25T08:39:03.474Z,13.25
2019-03-25T08:41:31.593Z,15.32
2019-03-25T08:43:58.928Z,14.28
2019-03-25T08:46:26.280Z,16.15
2019-03-25T08:48:53.325Z,11.90
2019-03-25T08:51:20.682Z,12.10
2019-03-25T08:53:47.720Z,11.55
2019-03-25T08:56:14.817Z,12.15
2019-03-25T08:58:41.802Z,17.30
2019-03-25T09:01:09.201Z,12.58
2019-03-25T09:03:36.231Z,16.73
2019-03-25T09:06:03.587Z,9.98
2019-03-25T09:08:30.619Z,13.80
2019-03-25T09:10:58.005Z,9.90
2019-03-25T09:13:25.342Z,18.57
2019-03-25T09:15:52.696Z,9.13
2019-03-25T09:18:20.060Z,14.30
2019-03-25T09:20:47.104Z,12.95
2019-03-25T09:23:14.479Z,15.40
2019-03-25T09:25:41.516Z,12.63
2019-03-25T09:28:08.876Z,15.88
2019-03-25T09:30:36.232Z,14.07
2019-03-25T09:33:03.570Z,10.23
2019-03-25T09:35:30.600Z,7.25
2019-03-25T09:37:57.974Z,11.65
2019-03-25T09:40:25.323Z,8.68
2019-03-25T09:42:52.453Z,11.33
2019-03-25T09:45:19.489Z,12.15
2019-03-25T09:47:46.544Z,11.03
2019-03-25T09:50:13.925Z,9.85
2019-03-25T09:52:41.282Z,11.03
2019-03-25T09:55:08.638Z,11.15
2019-03-25T09:57:35.690Z,10.55
2019-03-25T10:00:02.725Z,9.63
2019-03-25T10:02:30.206Z,7.35
2019-03-25T10:04:57.562Z,10.48
2019-03-25T10:07:24.903Z,9.23
2019-03-25T10:09:51.936Z,8.53
2019-03-25T10:12:18.984Z,10.43
2019-03-25T10:14:46.261Z,11.22
2019-03-25T10:17:13.323Z,14.55
2019-03-25T10:19:40.362Z,11.57
2019-03-25T10:22:07.411Z,8.88
2019-03-25T10:24:34.446Z,10.05
2019-03-25T10:27:01.812Z,7.72
2019-03-25T10:29:28.857Z,13.98
2019-03-25T10:31:55.901Z,11.83
2019-03-25T10:34:22.944Z,9.25
2019-03-25T10:36:50.231Z,11.33
2019-03-25T10:39:17.566Z,9.78
2019-03-25T10:41:44.846Z,13.20
2019-03-25T10:44:11.901Z,11.08
2019-03-25T10:46:38.929Z,8.93
2019-03-25T10:49:06.254Z,10.78
2019-03-25T10:51:33.533Z,11.80
2019-03-25T10:54:00.822Z,9.43
2019-03-25T10:56:27.853Z,10.95
2019-03-25T10:58:58.273Z,9.33
2019-03-25T11:01:23.895Z,11.60
2019-03-25T11:03:50.944Z,8.48
2019-03-25T11:06:17.982Z,8.33
2019-03-25T11:08:45.035Z,12.07
2019-03-25T11:11:12.067Z,8.00
2019-03-25T11:13:39.124Z,9.40
2019-03-25T11:16:06.155Z,9.45
2019-03-25T11:18:34.616Z,9.55
2019-03-25T11:21:01.717Z,11.63
2019-03-25T11:23:29.120Z,7.35
2019-03-25T11:25:56.154Z,12.18
2019-03-25T11:28:23.558Z,11.57
2019-03-25T11:30:50.878Z,11.08
2019-03-25T11:33:18.897Z,10.60
2019-03-25T11:35:45.934Z,10.72
2019-03-25T11:38:12.986Z,8.88
2019-03-25T11:40:40.013Z,10.35
2019-03-25T11:43:07.350Z,9.50
2019-03-25T11:45:34.387Z,7.12
2019-03-25T11:48:01.441Z,9.40
2019-03-25T11:50:28.476Z,9.60
2019-03-25T11:52:55.846Z,9.78
2019-03-25T11:55:23.225Z,10.32
2019-03-25T11:57:50.270Z,9.90
2019-03-25T12:00:17.307Z,6.60
2019-03-25T12:02:44.352Z,7.72
2019-03-25T12:05:11.390Z,8.10
2019-03-25T12:07:38.420Z,10.90
2019-03-25T12:10:05.476Z,8.15
2019-03-25T12:12:32.757Z,9.78
2019-03-25T12:15:01.595Z,12.25
2019-03-25T12:17:29.293Z,10.85
2019-03-25T12:19:56.654Z,7.03
2019-03-25T12:22:23.693Z,7.95
2019-03-25T12:24:50.745Z,7.85
2019-03-25T12:27:18.157Z,6.33
2019-03-25T12:29:45.461Z,8.48
2019-03-25T12:32:12.502Z,8.18
2019-03-25T12:34:39.553Z,7.58
2019-03-25T12:37:06.905Z,8.30
2019-03-25T12:39:33.960Z,9.65
2019-03-25T12:42:01.325Z,8.10
2019-03-25T12:44:28.375Z,7.05
2019-03-25T12:46:55.424Z,9.48
2019-03-25T12:49:22.472Z,7.17
2019-03-25T12:51:49.822Z,8.78
2019-03-25T12:54:16.856Z,3.62
2019-03-25T12:56:44.210Z,5.10
2019-03-25T12:59:11.269Z,5.78
2019-03-25T13:01:38.633Z,4.53
2019-03-25T13:04:05.679Z,6.72
2019-03-25T13:06:32.713Z,4.62
2019-03-25T13:09:00.217Z,4.72
2019-03-25T13:11:29.002Z,3.92
2019-03-25T13:13:56.327Z,4.78
2019-03-25T13:16:23.369Z,5.80
2019-03-25T13:18:50.415Z,4.42
2019-03-25T13:21:17.460Z,6.85
2019-03-25T13:23:44.487Z,4.62
2019-03-25T13:26:11.535Z,5.60
2019-03-25T13:28:38.568Z,3.58
2019-03-25T13:31:05.979Z,6.15
2019-03-25T13:33:33.335Z,4.42
2019-03-25T13:36:00.683Z,3.08
2019-03-25T13:38:28.025Z,3.15
2019-03-25T13:40:55.079Z,4.67
2019-03-25T13:43:22.422Z,3.45
2019-03-25T13:45:49.473Z,4.67
2019-03-25T13:48:16.516Z,3.95
2019-03-25T13:50:43.891Z,3.87
2019-03-25T13:53:11.247Z,5.25
2019-03-25T13:55:38.584Z,3.20
2019-03-25T13:58:05.636Z,4.78
2019-03-25T14:00:32.985Z,4.90
2019-03-25T14:03:00.344Z,4.62
2019-03-25T14:05:27.378Z,5.70
2019-03-25T14:07:54.744Z,5.35
2019-03-25T14:10:22.120Z,3.75
2019-03-25T14:12:49.177Z,2.35
2019-03-25T14:15:16.511Z,2.35
2019-03-25T14:17:43.557Z,4.80
2019-03-25T14:20:10.968Z,4.70
2019-03-25T14:22:37.973Z,4.53
2019-03-25T14:25:05.007Z,3.95
2019-03-25T14:27:32.053Z,6.05
2019-03-25T14:29:59.089Z,5.12
2019-03-25T14:32:26.133Z,5.33
2019-03-25T14:34:53.165Z,2.95
2019-03-25T14:37:20.217Z,3.35
2019-03-25T14:39:47.596Z,6.95
2019-03-25T14:42:14.957Z,4.65
2019-03-25T14:44:42.307Z,5.83
2019-03-25T14:47:09.356Z,6.12
2019-03-25T14:49:36.713Z,7.00
2019-03-25T14:52:03.762Z,4.70
2019-03-25T14:54:30.801Z,6.50
2019-03-25T14:56:58.161Z,4.70
2019-03-25T14:59:25.531Z,3.75
2019-03-25T15:01:52.872Z,3.33
2019-03-25T15:04:20.246Z,5.97
2019-03-25T15:06:47.580Z,7.62
2019-03-25T15:09:14.639Z,8.70
2019-03-25T15:11:41.983Z,5.90
2019-03-25T15:14:09.032Z,3.02
2019-03-25T15:16:36.064Z,5.00
2019-03-25T15:19:03.119Z,4.08
2019-03-25T15:21:30.483Z,2.98
2019-03-25T15:23:57.532Z,4.42
2019-03-25T15:26:24.562Z,3.70
2019-03-25T15:28:51.932Z,5.12
2019-03-25T15:31:19.288Z,4.00
2019-03-25T15:33:46.340Z,3.92
2019-03-25T15:36:13.694Z,6.03
2019-03-25T15:38:41.049Z,3.15
2019-03-25T15:41:08.401Z,4.33
2019-03-25T15:43:35.448Z,3.87
2019-03-25T15:46:02.483Z,2.27
2019-03-25T15:48:29.527Z,4.90
2019-03-25T15:50:56.918Z,2.98
2019-03-25T15:53:23.967Z,5.40
2019-03-25T15:55:51.000Z,2.90
2019-03-25T15:58:26.014Z,2.77
2019-03-25T16:00:48.502Z,4.20
2019-03-25T16:03:16.236Z,7.35
2019-03-25T16:05:49.040Z,5.72
2019-03-25T16:08:16.397Z,2.80
2019-03-25T16:10:44.401Z,2.65
2019-03-25T16:13:11.884Z,4.05
2019-03-25T16:15:42.106Z,5.65
2019-03-25T16:18:09.143Z,13.72
2019-03-25T16:20:36.427Z,10.40
2019-03-25T16:23:03.799Z,3.45
2019-03-25T16:25:31.193Z,3.98
2019-03-25T16:28:02.486Z,2.12
2019-03-25T16:30:36.653Z,3.47
2019-03-25T16:33:04.136Z,2.08
2019-03-25T16:35:31.417Z,2.77
2019-03-25T16:37:58.819Z,4.62
2019-03-25T16:40:41.432Z,2.27
2019-03-25T16:43:11.756Z,1.95
2019-03-25T16:45:41.868Z,25.32
2019-03-25T16:50:58.595Z,3.27
2019-03-25T16:53:32.977Z,4.10
2019-03-25T16:56:01.176Z,5.78
2019-03-25T16:58:28.453Z,2.85
2019-03-25T17:00:56.599Z,2.02
2019-03-25T17:03:24.821Z,4.72
2019-03-25T17:08:38.815Z,2.95
2019-03-25T17:11:07.316Z,2.72
2019-03-25T17:13:36.547Z,2.67
2019-03-25T17:16:13.794Z,1.12
2019-03-25T17:18:40.873Z,1.00
2019-03-25T17:21:10.051Z,0.90
2019-03-25T17:23:40.295Z,1.12
2019-03-25T17:26:24.804Z,2.58
2019-03-25T17:31:31.451Z,0.90
2019-03-25T17:33:59.620Z,2.25
2019-03-25T17:36:29.709Z,1.10
2019-03-25T17:47:03.043Z,12.58
2019-03-25T17:49:32.567Z,27.30
2019-03-25T17:52:04.029Z,23.57
2019-03-25T17:54:31.302Z,9.18
2019-03-25T17:57:04.869Z,14.38
2019-03-25T17:59:37.178Z,15.20
2019-03-25T18:02:11.367Z,22.60
2019-03-25T18:04:38.637Z,17.02
2019-03-25T18:07:10.071Z,20.68
2019-03-25T18:09:37.515Z,19.32
2019-03-25T18:12:07.020Z,13.15
2019-03-25T18:14:34.459Z,6.67
2019-03-25T18:17:03.695Z,5.62
2019-03-25T18:19:30.963Z,2.83
2019-03-25T18:22:07.917Z,5.78
2019-03-25T18:24:35.268Z,4.45
2019-03-25T18:27:04.476Z,2.92
2019-03-25T18:29:31.752Z,2.30
2019-03-25T18:32:05.503Z,5.95
2019-03-25T18:37:11.295Z,9.38
2019-03-25T18:45:09.758Z,2.72
2019-03-25T18:47:39.005Z,4.25
2019-03-25T18:52:50.399Z,3.83
2019-03-25T18:55:17.759Z,5.33
2019-03-25T18:57:51.073Z,5.55
2019-03-25T19:05:48.992Z,5.55
2019-03-25T19:08:21.274Z,4.03
2019-03-25T19:10:51.698Z,3.95
2019-03-25T19:15:59.415Z,16.27
2019-03-25T19:18:26.476Z,35.85
2019-03-25T19:20:56.617Z,7.80
2019-03-25T19:23:23.656Z,7.17
2019-03-25T19:28:28.041Z,5.70
2019-03-25T19:30:59.930Z,4.92
2019-03-25T19:33:45.378Z,4.55
2019-03-25T19:38:59.696Z,3.27
2019-03-25T19:44:04.033Z,3.55
2019-03-25T19:46:32.188Z,7.80
2019-03-25T19:49:07.799Z,5.47
2019-03-25T19:51:38.370Z,5.95
2019-03-25T19:54:05.440Z,9.68
2019-03-25T19:56:32.520Z,6.97
2019-03-25T20:01:49.673Z,16.15
2019-03-25T20:04:17.958Z,18.70
2019-03-25T20:06:50.107Z,25.15
2019-03-25T20:09:24.719Z,8.20
2019-03-25T20:14:33.313Z,6.42
2019-03-25T20:17:03.481Z,7.78
2019-03-25T20:19:30.657Z,8.65
2019-03-25T20:24:38.339Z,4.15
2019-03-25T20:27:05.440Z,4.20
2019-03-25T20:29:38.640Z,8.55
2019-03-25T20:32:07.835Z,5.10
2019-03-25T20:34:37.906Z,6.20
2019-03-25T20:37:09.696Z,6.42
2019-03-25T20:39:49.098Z,5.83
2019-03-25T20:42:17.290Z,5.90
2019-03-25T20:44:45.008Z,6.37
2019-03-25T20:47:12.293Z,9.45
2019-03-25T20:49:45.321Z,8.18
2019-03-25T20:52:12.611Z,6.60
2019-03-25T20:54:45.740Z,11.78
2019-03-25T20:57:12.802Z,6.58
2019-03-25T20:59:52.320Z,7.95
2019-03-25T21:02:21.609Z,11.37
2019-03-25T21:04:49.908Z,6.65
2019-03-25T21:07:19.208Z,7.25
2019-03-25T21:09:55.346Z,8.20
2019-03-25T21:12:24.879Z,11.00
2019-03-25T21:15:08.372Z,7.23
2019-03-25T21:17:40.223Z,8.98
2019-03-25T21:20:09.406Z,9.43
2019-03-25T21:22:38.960Z,9.45
2019-03-25T21:25:11.178Z,8.80
2019-03-25T21:30:17.755Z,7.25
2019-03-25T21:32:57.247Z,10.32
2019-03-25T21:35:16.866Z,7.92
2019-03-25T21:37:43.960Z,11.70
2019-03-25T21:40:11.390Z,11.93
2019-03-25T21:42:38.769Z,10.38
2019-03-25T21:45:06.056Z,10.38
2019-03-25T21:47:33.405Z,14.03
2019-03-25T21:50:00.547Z,12.88
2019-03-25T21:52:28.973Z,12.45
2019-03-25T21:54:55.992Z,11.08
2019-03-25T21:57:23.366Z,11.93
2019-03-25T21:59:50.393Z,9.65
2019-03-25T22:02:17.507Z,11.30
2019-03-25T22:04:44.558Z,10.68
2019-03-25T22:07:11.865Z,13.50
2019-03-25T22:09:38.907Z,11.20
2019-03-25T22:12:06.048Z,9.73
2019-03-25T22:14:33.101Z,9.83
2019-03-25T22:17:00.148Z,10.30
2019-03-25T22:19:27.200Z,8.83
2019-03-25T22:21:54.238Z,9.85
2019-03-25T22:24:21.573Z,8.30
2019-03-25T22:26:48.609Z,9.10
2019-03-25T22:29:15.658Z,11.95
2019-03-25T22:31:42.698Z,7.15
2019-03-25T22:34:09.750Z,9.00
2019-03-25T22:36:37.138Z,8.03
2019-03-25T22:39:04.185Z,8.83
2019-03-25T22:41:31.538Z,8.80
2019-03-25T22:43:58.883Z,10.20
2019-03-25T22:46:25.914Z,8.50
2019-03-25T22:48:52.969Z,8.75
2019-03-25T22:51:20.012Z,12.20
2019-03-25T22:53:47.380Z,11.05
2019-03-25T22:56:14.740Z,13.35
2019-03-25T22:58:42.084Z,10.15
2019-03-25T23:01:09.441Z,9.00
2019-03-25T23:03:39.443Z,10.93
2019-03-25T23:06:05.380Z,10.93
2019-03-25T23:08:32.429Z,8.90
2019-03-25T23:10:59.783Z,8.20
2019-03-25T23:13:26.835Z,11.25
2019-03-25T23:15:54.186Z,8.10
2019-03-25T23:18:21.242Z,11.08
2019-03-25T23:20:48.588Z,10.30
2019-03-25T23:23:15.626Z,9.23
2019-03-25T23:25:42.682Z,9.23
2019-03-25T23:28:09.964Z,9.63
2019-03-25T23:30:37.293Z,11.40
2019-03-25T23:33:04.331Z,9.63
2019-03-25T23:35:31.625Z,11.18
2019-03-25T23:37:58.741Z,10.00
2019-03-25T23:40:26.125Z,8.73
2019-03-25T23:42:53.129Z,9.83
2019-03-25T23:45:20.181Z,10.72
2019-03-25T23:47:47.217Z,9.03
2019-03-25T23:50:14.268Z,10.55
2019-03-25T23:52:41.296Z,9.98
2019-03-25T23:55:08.589Z,11.28
2019-03-25T23:57:35.947Z,9.60
